SCBA/BBA METAR and TAF weather

Enter ICAO airport designator
Station Type Date Time Source
SCBA METAR 2019/04/20 18:00 UTC NOAA

SCBA 201800Z 29007KT 240V320 CAVOK 11/05 Q1019


Station Type Date Time Source
SCBA Decoded METAR 2019/04/20 18:00 UTC NOAA

Balmaceda, Chile (SCBA) 45-55S 071-41W 520M
Apr 20, 2019 - 02:00 PM EDT / 2019.04.20 1800 UTC
Wind: from the WNW (290 degrees) at 8 MPH (7 KT) (direction variable):0
Visibility: greater than 7 mile(s):0
Temperature: 51 F (11 C)
Dew Point: 41 F (5 C)
Relative Humidity: 66%
Pressure (altimeter): 30.09 in. Hg (1019 hPa)
ob: SCBA 201800Z 29007KT 240V320 CAVOK 11/05 Q1019
cycle: 18

Station Type Date Time Source
SCBA TAF 2019/04/20 18:03 UTC NOAA

TAF SCBA 201653Z 2018/2118 29006KT 9999 SCT020 TX14/2019Z TN00/2111Z
BECMG 2019/2021 CAVOK
BECMG 2104/2106 VRB02KT

Example: see airport list